createdAt,value
2022-08-28T00:01:57.150Z,17.44
2022-08-28T00:04:23.515Z,17.44
2022-08-28T00:06:49.866Z,17.49
2022-08-28T00:09:16.195Z,17.46
2022-08-28T00:11:42.565Z,17.45
2022-08-28T00:14:09.797Z,17.43
2022-08-28T00:16:36.212Z,17.43
2022-08-28T00:19:03.393Z,17.48
2022-08-28T00:21:31.951Z,17.47
2022-08-28T00:23:58.465Z,17.49
2022-08-28T00:26:43.568Z,17.48
2022-08-28T00:29:09.920Z,17.49
2022-08-28T00:31:39.709Z,17.52
2022-08-28T00:34:09.498Z,17.53
2022-08-28T00:36:36.095Z,17.50
2022-08-28T00:39:03.453Z,17.51
2022-08-28T00:41:31.217Z,17.50
2022-08-28T00:44:06.080Z,17.50
2022-08-28T00:46:32.447Z,17.52
2022-08-28T00:48:58.758Z,17.55
2022-08-28T00:51:43.695Z,17.53
2022-08-28T00:54:10.057Z,17.53
2022-08-28T00:56:37.882Z,17.53
2022-08-28T00:59:07.348Z,17.53
2022-08-28T01:01:33.773Z,17.52
2022-08-28T01:04:02.251Z,17.52
2022-08-28T01:06:28.555Z,17.53
2022-08-28T01:08:54.894Z,17.53
2022-08-28T01:11:21.316Z,17.55
2022-08-28T01:13:48.559Z,17.54
2022-08-28T01:16:19.035Z,17.54
2022-08-28T01:18:46.011Z,17.56
2022-08-28T01:21:20.394Z,17.56
2022-08-28T01:23:53.281Z,17.53
2022-08-28T01:26:20.326Z,17.52
2022-08-28T01:28:46.708Z,17.52
2022-08-28T01:31:14.112Z,17.52
2022-08-28T01:33:42.501Z,17.52
2022-08-28T01:36:10.406Z,17.50
2022-08-28T01:38:37.580Z,17.48
2022-08-28T01:41:03.928Z,17.50
2022-08-28T01:43:31.420Z,17.48
2022-08-28T01:46:01.887Z,17.47
2022-08-28T01:48:29.164Z,17.47
2022-08-28T01:50:56.048Z,17.47
2022-08-28T01:53:24.872Z,17.52
2022-08-28T01:55:52.207Z,17.49
2022-08-28T01:58:18.632Z,17.48
2022-08-28T02:00:45.075Z,17.47
2022-08-28T02:03:12.695Z,17.45
2022-08-28T02:05:39.924Z,17.43
2022-08-28T02:08:07.462Z,17.42
2022-08-28T02:10:35.288Z,17.39
2022-08-28T02:13:02.257Z,17.37
2022-08-28T02:15:29.446Z,17.26
2022-08-28T02:17:56.029Z,17.25
2022-08-28T02:20:23.025Z,17.27
2022-08-28T02:22:49.358Z,17.21
2022-08-28T02:25:16.748Z,17.09
2022-08-28T02:27:44.097Z,17.07
2022-08-28T02:30:11.816Z,17.09
2022-08-28T02:32:38.264Z,17.04
2022-08-28T02:35:04.982Z,17.03
2022-08-28T02:37:37.292Z,16.98
2022-08-28T02:40:03.902Z,16.94
2022-08-28T02:42:30.229Z,17.03
2022-08-28T02:44:56.546Z,16.93
2022-08-28T02:47:22.830Z,16.92
2022-08-28T02:49:49.256Z,16.87
2022-08-28T02:52:15.598Z,16.90
2022-08-28T02:54:41.926Z,16.87
2022-08-28T02:57:08.902Z,16.88
2022-08-28T02:59:36.209Z,16.95
2022-08-28T03:02:04.124Z,16.93
2022-08-28T03:04:31.481Z,16.90
2022-08-28T03:06:58.195Z,16.91
2022-08-28T03:09:24.741Z,16.91
2022-08-28T03:11:53.512Z,16.86
2022-08-28T03:14:20.860Z,16.90
2022-08-28T03:16:47.291Z,16.87
2022-08-28T03:19:13.880Z,16.88
2022-08-28T03:21:40.204Z,16.82
2022-08-28T03:24:06.826Z,16.84
2022-08-28T03:26:33.301Z,16.84
2022-08-28T03:29:01.902Z,16.86
2022-08-28T03:31:29.024Z,16.88
2022-08-28T03:33:55.861Z,16.84
2022-08-28T03:36:25.117Z,16.86
2022-08-28T03:38:52.270Z,16.88
2022-08-28T03:41:21.133Z,16.90
2022-08-28T03:43:47.813Z,16.89
2022-08-28T03:46:18.273Z,16.90
2022-08-28T03:48:45.089Z,16.91
2022-08-28T03:51:16.768Z,16.91
2022-08-28T03:53:44.503Z,16.89
2022-08-28T03:56:19.258Z,16.90
2022-08-28T03:58:45.732Z,16.88
2022-08-28T04:01:36.994Z,16.85
2022-08-28T04:04:03.705Z,16.88
2022-08-28T04:06:44.042Z,16.88
2022-08-28T04:09:23.824Z,16.81
2022-08-28T04:12:10.744Z,16.79
2022-08-28T04:14:46.449Z,16.79
2022-08-28T04:17:24.123Z,16.76
2022-08-28T04:19:58.816Z,16.75
2022-08-28T04:22:32.759Z,16.71
2022-08-28T04:25:04.878Z,16.72
2022-08-28T04:27:32.197Z,16.63
2022-08-28T04:30:49.511Z,16.62
2022-08-28T04:36:12.287Z,16.55
2022-08-28T04:38:52.489Z,16.56
2022-08-28T04:41:31.738Z,16.49
2022-08-28T04:44:01.075Z,16.50
2022-08-28T04:47:00.048Z,16.44
2022-08-28T04:50:04.924Z,16.39
2022-08-28T04:52:50.252Z,16.34
2022-08-28T04:55:53.748Z,16.31
2022-08-28T04:58:56.182Z,16.27
2022-08-28T05:01:35.351Z,16.22
2022-08-28T05:04:05.055Z,16.26
2022-08-28T05:06:36.033Z,16.26
2022-08-28T05:09:12.915Z,16.21
2022-08-28T05:11:39.395Z,16.17
2022-08-28T05:14:07.345Z,16.16
2022-08-28T05:16:40.186Z,16.18
2022-08-28T05:19:09.771Z,16.16
2022-08-28T05:21:39.620Z,16.16
2022-08-28T05:24:10.650Z,16.13
2022-08-28T05:26:40.293Z,16.14
2022-08-28T05:29:16.497Z,16.09
2022-08-28T05:31:48.223Z,16.10
2022-08-28T05:34:15.383Z,16.00
2022-08-28T05:36:53.222Z,15.97
2022-08-28T05:39:19.741Z,16.00
2022-08-28T05:42:00.163Z,15.92
2022-08-28T05:44:31.847Z,15.86
2022-08-28T05:46:58.692Z,15.82
2022-08-28T05:49:32.952Z,15.80
2022-08-28T05:52:02.177Z,15.80
2022-08-28T05:54:32.299Z,15.76
2022-08-28T05:56:58.933Z,15.76
2022-08-28T05:59:33.952Z,15.77
2022-08-28T06:02:05.646Z,15.63
2022-08-28T06:04:32.679Z,15.53
2022-08-28T06:07:02.139Z,15.48
2022-08-28T06:09:34.488Z,15.49
2022-08-28T06:12:11.629Z,15.43
2022-08-28T06:14:41.560Z,15.33
2022-08-28T06:17:15.135Z,15.23
2022-08-28T06:19:47.593Z,15.24
2022-08-28T06:22:25.742Z,15.23
2022-08-28T06:24:52.104Z,15.22
2022-08-28T06:27:25.701Z,15.19
2022-08-28T06:29:52.275Z,15.22
2022-08-28T06:32:19.914Z,15.14
2022-08-28T06:34:59.617Z,15.09
2022-08-28T06:37:27.453Z,15.04
2022-08-28T06:40:08.341Z,14.97
2022-08-28T06:42:46.717Z,14.96
2022-08-28T06:45:22.356Z,14.88
2022-08-28T06:48:07.631Z,14.84
2022-08-28T06:50:40.805Z,14.86
2022-08-28T06:56:38.577Z,14.87
2022-08-28T06:59:12.872Z,14.88
2022-08-28T07:02:28.726Z,14.94
2022-08-28T07:05:45.912Z,14.93
2022-08-28T07:08:17.113Z,14.94
2022-08-28T07:11:12.217Z,15.00
2022-08-28T07:14:03.610Z,15.05
2022-08-28T07:16:32.233Z,15.04
2022-08-28T07:19:18.992Z,15.04
2022-08-28T07:23:19.577Z,15.11
2022-08-28T07:25:40.197Z,15.10
2022-08-28T07:32:01.613Z,15.17
2022-08-28T07:34:52.735Z,15.15
2022-08-28T07:47:27.088Z,15.13
2022-08-28T07:52:53.086Z,15.16
2022-08-28T07:55:34.459Z,15.22
2022-08-28T08:04:07.550Z,15.21
2022-08-28T08:06:34.612Z,15.22
2022-08-28T08:09:01.752Z,15.24
2022-08-28T08:11:28.094Z,15.23
2022-08-28T08:14:03.743Z,15.24
2022-08-28T08:16:33.523Z,15.33
2022-08-28T08:19:00.424Z,15.25
2022-08-28T08:21:30.313Z,15.26
2022-08-28T08:23:57.192Z,15.30
2022-08-28T08:26:24.570Z,15.27
2022-08-28T08:28:51.767Z,15.34
2022-08-28T08:31:18.350Z,15.34
2022-08-28T08:33:46.694Z,15.39
2022-08-28T08:36:14.724Z,15.51
2022-08-28T08:38:41.605Z,15.38
2022-08-28T08:41:25.546Z,15.42
2022-08-28T08:43:57.618Z,15.48
2022-08-28T08:46:27.975Z,15.48
2022-08-28T08:48:56.012Z,15.59
2022-08-28T08:51:38.586Z,15.60
2022-08-28T08:54:08.583Z,15.50
2022-08-28T08:56:35.345Z,15.55
2022-08-28T08:59:03.285Z,15.48
2022-08-28T09:01:29.642Z,15.47
2022-08-28T09:04:15.804Z,15.58
2022-08-28T09:06:50.056Z,15.74
2022-08-28T09:09:33.830Z,15.92
2022-08-28T09:12:07.896Z,16.06
2022-08-28T09:14:37.295Z,16.16
2022-08-28T09:17:04.810Z,16.22
2022-08-28T09:19:31.589Z,16.32
2022-08-28T09:21:58.024Z,16.28
2022-08-28T09:24:26.263Z,16.38
2022-08-28T09:26:53.846Z,16.38
2022-08-28T09:29:24.010Z,16.41
2022-08-28T09:31:50.369Z,16.48
2022-08-28T09:34:19.560Z,16.54
2022-08-28T09:36:46.108Z,16.57
2022-08-28T09:39:20.217Z,16.57
2022-08-28T09:42:09.182Z,16.64
2022-08-28T09:44:54.263Z,16.64
2022-08-28T09:47:45.991Z,16.75
2022-08-28T09:50:28.451Z,16.84
2022-08-28T09:52:56.388Z,16.95
2022-08-28T09:55:35.784Z,17.00
2022-08-28T09:58:02.926Z,17.06
2022-08-28T10:00:31.487Z,17.14
2022-08-28T10:03:07.755Z,17.24
2022-08-28T10:06:04.086Z,17.29
2022-08-28T10:08:49.170Z,17.34
2022-08-28T10:11:20.574Z,17.37
2022-08-28T10:13:54.359Z,17.45
2022-08-28T10:16:20.710Z,17.52
2022-08-28T10:18:58.158Z,17.52
2022-08-28T10:21:29.430Z,17.65
2022-08-28T10:24:16.659Z,17.61
2022-08-28T10:27:06.244Z,17.72
2022-08-28T10:29:32.581Z,17.77
2022-08-28T10:32:25.466Z,17.91
2022-08-28T10:35:02.415Z,17.94
2022-08-28T10:37:47.556Z,18.10
2022-08-28T10:40:16.408Z,18.26
2022-08-28T10:42:46.881Z,18.23
2022-08-28T10:45:18.966Z,18.63
2022-08-28T10:47:50.781Z,18.70
2022-08-28T10:50:23.121Z,18.43
2022-08-28T10:52:55.295Z,18.42
2022-08-28T10:55:23.376Z,18.40
2022-08-28T10:58:04.787Z,18.87
2022-08-28T11:00:48.075Z,18.76
2022-08-28T11:03:33.490Z,18.72
2022-08-28T11:06:08.380Z,18.86
2022-08-28T11:08:36.021Z,19.14
2022-08-28T11:11:03.801Z,19.01
2022-08-28T11:13:48.893Z,18.96
2022-08-28T11:16:24.220Z,18.83
2022-08-28T11:19:09.260Z,18.68
2022-08-28T11:21:40.350Z,18.75
2022-08-28T11:24:08.664Z,18.91
2022-08-28T11:26:48.000Z,18.83
2022-08-28T11:29:33.084Z,18.65
2022-08-28T11:32:18.219Z,18.63
2022-08-28T11:34:58.285Z,18.61
2022-08-28T11:37:43.959Z,18.71
2022-08-28T11:40:33.424Z,18.61
2022-08-28T11:43:16.006Z,18.55
2022-08-28T11:45:43.101Z,18.63
2022-08-28T11:48:25.819Z,18.66
2022-08-28T11:50:54.893Z,18.74
2022-08-28T11:53:40.041Z,18.96
2022-08-28T11:56:31.895Z,18.95
2022-08-28T11:59:10.718Z,18.90
2022-08-28T12:01:37.290Z,18.90
2022-08-28T12:04:08.638Z,18.80
2022-08-28T12:07:07.380Z,18.82
2022-08-28T12:09:41.503Z,18.95
2022-08-28T12:12:13.591Z,18.88
2022-08-28T12:14:39.864Z,18.79
2022-08-28T12:17:15.241Z,18.85
2022-08-28T12:19:55.484Z,18.89
2022-08-28T12:22:26.654Z,18.90
2022-08-28T12:25:04.598Z,19.03
2022-08-28T12:27:31.861Z,18.88
2022-08-28T12:29:59.603Z,18.86
2022-08-28T12:32:34.848Z,18.84
2022-08-28T12:35:02.210Z,18.92
2022-08-28T12:37:39.449Z,18.98
2022-08-28T12:40:37.132Z,18.97
2022-08-28T12:43:05.141Z,19.01
2022-08-28T12:45:34.644Z,19.07
2022-08-28T12:48:04.598Z,19.10
2022-08-28T12:50:38.243Z,19.29
2022-08-28T12:53:07.149Z,19.30
2022-08-28T12:55:33.876Z,19.27
2022-08-28T12:58:00.259Z,19.32
2022-08-28T13:00:32.834Z,19.45
2022-08-28T13:02:59.847Z,19.31
2022-08-28T13:05:34.112Z,19.28
2022-08-28T13:08:03.722Z,19.44
2022-08-28T13:10:32.528Z,19.41
2022-08-28T13:13:05.898Z,19.44
2022-08-28T13:15:50.015Z,19.37
2022-08-28T13:18:50.223Z,19.13
2022-08-28T13:21:32.801Z,19.05
2022-08-28T13:24:20.516Z,19.26
2022-08-28T13:26:47.439Z,19.40
2022-08-28T13:29:19.876Z,19.38
2022-08-28T13:31:54.803Z,19.43
2022-08-28T13:34:24.620Z,19.50
2022-08-28T13:36:52.706Z,19.49
2022-08-28T13:39:20.878Z,19.42
2022-08-28T13:41:49.332Z,19.36
2022-08-28T13:44:39.047Z,19.37
2022-08-28T13:47:06.783Z,19.48
2022-08-28T13:49:33.753Z,19.60
2022-08-28T13:52:00.951Z,19.73
2022-08-28T13:54:28.349Z,19.80
2022-08-28T13:56:54.817Z,19.76
2022-08-28T13:59:23.302Z,19.71
2022-08-28T14:02:08.615Z,19.53
2022-08-28T14:04:34.962Z,19.57
2022-08-28T14:07:01.256Z,19.50
2022-08-28T14:09:27.599Z,19.54
2022-08-28T14:11:55.502Z,19.65
2022-08-28T14:14:22.085Z,19.67
2022-08-28T14:16:51.461Z,19.73
2022-08-28T14:19:17.809Z,19.77
2022-08-28T14:21:44.209Z,19.71
2022-08-28T14:24:10.516Z,19.80
2022-08-28T14:26:37.259Z,19.91
2022-08-28T14:29:04.883Z,19.99
2022-08-28T14:31:31.593Z,19.99
2022-08-28T14:33:58.007Z,19.88
2022-08-28T14:36:25.744Z,19.85
2022-08-28T14:38:54.360Z,19.82
2022-08-28T14:41:21.863Z,19.79
2022-08-28T14:43:49.622Z,19.83
2022-08-28T14:46:21.052Z,19.87
2022-08-28T14:48:48.026Z,19.98
2022-08-28T14:51:15.142Z,20.12
2022-08-28T14:53:41.586Z,20.18
2022-08-28T14:56:08.720Z,20.21
2022-08-28T14:58:35.825Z,20.23
2022-08-28T15:01:02.211Z,20.21
2022-08-28T15:03:28.606Z,20.19
2022-08-28T15:06:06.448Z,20.17
2022-08-28T15:08:33.154Z,20.26
2022-08-28T15:10:59.499Z,20.13
2022-08-28T15:13:25.884Z,20.11
2022-08-28T15:16:05.653Z,20.05
2022-08-28T15:18:42.323Z,20.00
2022-08-28T15:21:16.945Z,20.01
2022-08-28T15:23:43.293Z,19.98
2022-08-28T15:26:15.109Z,20.09
2022-08-28T15:28:41.788Z,20.12
2022-08-28T15:31:08.153Z,20.17
2022-08-28T15:33:34.640Z,20.14
2022-08-28T15:36:00.944Z,20.10
2022-08-28T15:38:27.449Z,20.14
2022-08-28T15:41:12.765Z,20.15
2022-08-28T15:43:39.082Z,20.31
2022-08-28T15:46:12.681Z,20.44
2022-08-28T15:48:39.196Z,20.35
2022-08-28T15:51:06.209Z,20.31
2022-08-28T15:53:33.946Z,20.23
2022-08-28T15:56:02.226Z,20.37
2022-08-28T15:58:28.852Z,20.28
2022-08-28T16:00:55.467Z,20.27
2022-08-28T16:03:22.678Z,20.14
2022-08-28T16:05:48.996Z,20.10
2022-08-28T16:08:15.500Z,20.06
2022-08-28T16:10:46.365Z,20.10
2022-08-28T16:13:13.066Z,20.05
2022-08-28T16:15:39.561Z,20.00
2022-08-28T16:18:08.896Z,20.01
2022-08-28T16:20:38.241Z,20.01
2022-08-28T16:23:04.786Z,19.97
2022-08-28T16:25:31.171Z,19.95
2022-08-28T16:27:57.518Z,19.96
2022-08-28T16:30:24.530Z,20.02
2022-08-28T16:32:50.948Z,19.99
2022-08-28T16:35:17.278Z,19.96
2022-08-28T16:37:43.896Z,19.94
2022-08-28T16:40:10.825Z,19.95
2022-08-28T16:42:37.364Z,20.02
2022-08-28T16:45:04.324Z,19.98
2022-08-28T16:47:31.956Z,19.96
2022-08-28T16:49:59.316Z,19.95
2022-08-28T16:52:26.109Z,19.92
2022-08-28T16:54:52.517Z,19.93
2022-08-28T16:57:19.803Z,19.91
2022-08-28T16:59:46.630Z,19.90
2022-08-28T17:02:13.547Z,19.89
2022-08-28T17:04:40.075Z,19.85
2022-08-28T17:07:06.465Z,19.82
2022-08-28T17:09:32.976Z,19.79
2022-08-28T17:11:59.376Z,19.78
2022-08-28T17:14:26.009Z,19.76
2022-08-28T17:16:52.454Z,19.71
2022-08-28T17:19:19.265Z,19.69
2022-08-28T17:22:04.160Z,19.67
2022-08-28T17:24:31.037Z,19.67
2022-08-28T17:26:59.871Z,19.66
2022-08-28T17:29:28.845Z,19.61
2022-08-28T17:31:56.616Z,19.62
2022-08-28T17:34:25.758Z,19.58
2022-08-28T17:36:55.893Z,19.56
2022-08-28T17:39:22.391Z,19.50
2022-08-28T17:41:48.715Z,19.43
2022-08-28T17:44:15.111Z,19.37
2022-08-28T17:46:41.592Z,19.22
2022-08-28T17:49:08.468Z,19.15
2022-08-28T17:51:43.753Z,19.12
2022-08-28T17:54:14.406Z,19.08
2022-08-28T17:56:40.846Z,18.95
2022-08-28T17:59:07.669Z,18.83
2022-08-28T18:01:34.215Z,18.72
2022-08-28T18:04:00.654Z,18.62
2022-08-28T18:06:26.963Z,18.59
2022-08-28T18:08:53.544Z,18.52
2022-08-28T18:11:19.916Z,18.41
2022-08-28T18:13:46.414Z,18.32
2022-08-28T18:16:12.890Z,18.20
2022-08-28T18:18:39.291Z,18.19
2022-08-28T18:21:05.704Z,18.09
2022-08-28T18:23:32.111Z,18.04
2022-08-28T18:25:58.476Z,17.92
2022-08-28T18:28:25.403Z,17.91
2022-08-28T18:30:51.994Z,17.82
2022-08-28T18:33:19.828Z,17.77
2022-08-28T18:35:49.489Z,17.70
2022-08-28T18:38:16.595Z,17.68
2022-08-28T18:40:43.853Z,17.60
2022-08-28T18:43:10.561Z,17.56
2022-08-28T18:45:37.059Z,17.51
2022-08-28T18:48:03.532Z,17.43
2022-08-28T18:50:30.981Z,17.40
2022-08-28T18:52:57.863Z,17.35
2022-08-28T18:55:25.704Z,17.31
2022-08-28T18:57:52.213Z,17.26
2022-08-28T19:00:20.288Z,17.24
2022-08-28T19:02:46.784Z,17.20
2022-08-28T19:05:13.314Z,17.11
2022-08-28T19:07:40.035Z,17.08
2022-08-28T19:10:18.187Z,17.05
2022-08-28T19:12:53.850Z,16.98
2022-08-28T19:15:20.228Z,16.98
2022-08-28T19:17:46.593Z,16.95
2022-08-28T19:20:14.483Z,16.92
2022-08-28T19:22:41.337Z,16.87
2022-08-28T19:25:11.412Z,16.83
2022-08-28T19:27:52.140Z,16.77
2022-08-28T19:30:22.832Z,16.78
2022-08-28T19:32:49.180Z,16.73
2022-08-28T19:35:16.602Z,16.69
2022-08-28T19:37:43.351Z,16.61
2022-08-28T19:40:10.719Z,16.68
2022-08-28T19:42:37.621Z,16.56
2022-08-28T19:45:06.042Z,16.48
2022-08-28T19:47:35.746Z,16.49
2022-08-28T19:50:02.283Z,16.43
2022-08-28T19:52:28.617Z,16.43
2022-08-28T19:54:55.424Z,16.34
2022-08-28T19:57:21.884Z,16.34
2022-08-28T19:59:48.818Z,16.32
2022-08-28T20:02:15.223Z,16.27
2022-08-28T20:04:41.544Z,16.18
2022-08-28T20:07:07.885Z,16.21
2022-08-28T20:09:34.167Z,16.20
2022-08-28T20:12:00.918Z,16.21
2022-08-28T20:14:27.318Z,16.19
2022-08-28T20:16:54.436Z,16.32
2022-08-28T20:19:21.815Z,16.25
2022-08-28T20:21:51.429Z,15.98
2022-08-28T20:24:20.413Z,15.96
2022-08-28T20:26:46.870Z,16.02
2022-08-28T20:29:13.558Z,15.89
2022-08-28T20:31:42.265Z,15.95
2022-08-28T20:34:09.435Z,15.83
2022-08-28T20:36:35.848Z,15.77
2022-08-28T20:39:04.640Z,15.74
2022-08-28T20:41:31.039Z,15.74
2022-08-28T20:43:57.349Z,15.88
2022-08-28T20:46:23.714Z,15.79
2022-08-28T20:48:50.133Z,15.79
2022-08-28T20:51:16.445Z,15.75
2022-08-28T20:53:42.831Z,15.62
2022-08-28T20:56:09.938Z,15.59
2022-08-28T20:58:37.103Z,15.58
2022-08-28T21:01:03.538Z,15.56
2022-08-28T21:03:29.947Z,15.50
2022-08-28T21:05:56.468Z,15.49
2022-08-28T21:08:22.784Z,15.49
2022-08-28T21:10:51.624Z,15.49
2022-08-28T21:13:17.967Z,15.48
2022-08-28T21:15:44.275Z,15.40
2022-08-28T21:18:11.305Z,15.35
2022-08-28T21:20:39.289Z,15.35
2022-08-28T21:23:06.312Z,15.30
2022-08-28T21:25:32.660Z,15.34
2022-08-28T21:27:58.972Z,15.38
2022-08-28T21:30:30.516Z,15.34
2022-08-28T21:32:56.888Z,15.26
2022-08-28T21:35:23.224Z,15.19
2022-08-28T21:37:49.621Z,15.17
2022-08-28T21:40:16.027Z,15.22
2022-08-28T21:42:42.377Z,15.15
2022-08-28T21:45:12.054Z,15.22
2022-08-28T21:47:39.196Z,15.15
2022-08-28T21:50:06.483Z,15.03
2022-08-28T21:52:32.840Z,14.99
2022-08-28T21:55:00.326Z,15.06
2022-08-28T21:57:26.948Z,15.03
2022-08-28T21:59:53.897Z,14.94
2022-08-28T22:02:20.738Z,14.89
2022-08-28T22:04:48.344Z,15.01
2022-08-28T22:07:15.021Z,14.95
2022-08-28T22:09:41.403Z,14.74
2022-08-28T22:12:09.081Z,14.86
2022-08-28T22:14:36.226Z,14.77
2022-08-28T22:17:05.572Z,14.69
2022-08-28T22:19:35.277Z,14.73
2022-08-28T22:22:20.299Z,14.65
2022-08-28T22:24:46.676Z,14.68
2022-08-28T22:27:13.817Z,14.64
2022-08-28T22:29:40.410Z,14.60
2022-08-28T22:32:07.805Z,14.59
2022-08-28T22:34:38.809Z,14.58
2022-08-28T22:37:05.182Z,14.54
2022-08-28T22:39:31.557Z,14.55
2022-08-28T22:41:57.887Z,14.59
2022-08-28T22:44:24.191Z,14.53
2022-08-28T22:46:50.926Z,14.53
2022-08-28T22:49:17.265Z,14.48
2022-08-28T22:51:43.565Z,14.43
2022-08-28T22:54:09.899Z,14.38
2022-08-28T22:56:36.407Z,14.40
2022-08-28T22:59:02.901Z,14.32
2022-08-28T23:01:29.327Z,14.37
2022-08-28T23:03:55.798Z,14.27
2022-08-28T23:06:22.148Z,14.27
2022-08-28T23:08:48.639Z,14.27
2022-08-28T23:11:15.202Z,14.27
2022-08-28T23:13:41.618Z,14.37
2022-08-28T23:16:08.032Z,14.31
2022-08-28T23:19:03.969Z,14.19
2022-08-28T23:21:23.033Z,14.25
2022-08-28T23:23:49.515Z,14.33
2022-08-28T23:26:16.273Z,14.22
2022-08-28T23:28:42.935Z,14.16
2022-08-28T23:31:09.905Z,14.15
2022-08-28T23:33:36.276Z,14.12
2022-08-28T23:36:02.685Z,13.97
2022-08-28T23:38:29.043Z,13.99
2022-08-28T23:40:55.531Z,13.99
2022-08-28T23:43:21.867Z,13.88
2022-08-28T23:45:48.627Z,13.94
2022-08-28T23:48:15.310Z,13.96
2022-08-28T23:50:42.165Z,13.95
2022-08-28T23:53:09.406Z,13.91
2022-08-28T23:55:36.209Z,13.91
2022-08-28T23:58:03.265Z,13.89
